Tilton, South Dakota
Current Conditions -  °F | °C
As of 5:15 PM on Monday 24 Nov 2014 (Local Time) from KSPF Reporting Station
Overcast Overcast  
Wind Chill: -5°   Ceiling: 4200
Heat Index:   Visibility: 10mi
Dew Point: -4°   Wind: 10mph
Humidity: 75%   Direction: 280°W
Pressure: 30.06"   Gusts: NA
Location:  44.253°N, 103.912°W
Report Text: KSPF 250015Z AUTO 28009KT 10SM OVC042 00/M04 A3006 RMK AO2
Loading
Personal Weather Stations






























Interactive Weather Map New forecast layout! Learn more

10-Day Weather Forecast

Advertisements
Track Severe Weather on mobile